Time;durP1;ratioP1;P1;durP2;ratioP2;P2;SDS_P1;SDS_P2;PMS_P1;PMS_P2;Temp;Humidity;BMP_temperature;BMP_pressure;BME280_temperature;BME280_humidity;BME280_pressure;Samples;Min_cycle;Max_cycle;Signal;HPM_P1;HPM_P2
2022/12/07 00:01:57;;;;;;;9.15;7.97;;;;;;;4.83;76.03;96679.75;5074623;28;20474;-79
2022/12/07 00:04:26;;;;;;;9.13;8.07;;;;;;;4.85;76.21;96680.41;5074240;28;20076;-80
2022/12/07 00:06:54;;;;;;;8.73;7.78;;;;;;;4.83;76.63;96676.34;5074583;28;20049;-79
2022/12/07 00:09:23;;;;;;;12.10;8.80;;;;;;;4.82;76.23;96682.47;5074277;28;20478;-80
2022/12/07 00:11:54;;;;;;;10.93;8.17;;;;;;;4.83;75.73;96676.34;5073411;28;20052;-79
2022/12/07 00:14:25;;;;;;;8.73;7.38;;;;;;;4.85;76.26;96672.66;5072529;28;20053;-80
2022/12/07 00:16:54;;;;;;;10.02;8.45;;;;;;;4.88;76.19;96669.00;5072325;28;20044;-79
2022/12/07 00:19:25;;;;;;;12.55;9.05;;;;;;;4.90;76.69;96672.25;5072521;28;20123;-80
2022/12/07 00:21:52;;;;;;;9.55;7.80;;;;;;;4.89;76.53;96665.44;5072248;28;20049;-80
2022/12/07 00:24:20;;;;;;;9.73;8.50;;;;;;;4.87;76.09;96667.34;5085919;22;20144;-78
2022/12/07 00:26:48;;;;;;;10.48;8.82;;;;;;;4.89;76.21;96665.44;5072103;28;20513;-78
2022/12/07 00:29:18;;;;;;;10.35;8.07;;;;;;;4.90;74.89;96665.28;5073513;28;20049;-79
2022/12/07 00:31:46;;;;;;;8.82;7.35;;;;;;;4.89;75.67;96666.25;5074443;28;20048;-78
2022/12/07 00:34:16;;;;;;;9.40;8.27;;;;;;;4.86;75.85;96658.78;5074073;28;20052;-78
2022/12/07 00:36:44;;;;;;;11.25;8.40;;;;;;;4.87;76.16;96651.84;5073217;28;20053;-78
2022/12/07 00:39:11;;;;;;;9.32;7.30;;;;;;;4.87;75.95;96655.22;5073713;28;20055;-78
2022/12/07 00:41:39;;;;;;;13.07;8.38;;;;;;;4.87;75.48;96652.66;5073839;28;20453;-78
2022/12/07 00:44:06;;;;;;;11.57;8.27;;;;;;;4.88;75.78;96664.63;5073914;28;20063;-79
2022/12/07 00:46:34;;;;;;;9.32;8.10;;;;;;;4.89;76.18;96663.66;5073812;28;20056;-78
2022/12/07 00:49:02;;;;;;;10.50;8.75;;;;;;;4.90;76.34;96654.16;5073204;28;20044;-78
2022/12/07 00:51:30;;;;;;;9.88;8.48;;;;;;;4.87;75.51;96660.41;5073840;28;20052;-78
2022/12/07 00:53:58;;;;;;;10.85;8.00;;;;;;;4.87;75.88;96657.81;5073570;28;20287;-78
2022/12/07 00:56:28;;;;;;;9.73;7.95;;;;;;;4.87;75.78;96657.00;5073438;28;20048;-78
2022/12/07 00:58:57;;;;;;;12.35;9.10;;;;;;;4.86;75.91;96656.19;5073281;28;20059;-78
2022/12/07 01:01:25;;;;;;;11.43;8.70;;;;;;;4.87;76.73;96660.41;5073518;28;20048;-78
2022/12/07 01:03:53;;;;;;;10.00;8.48;;;;;;;4.86;76.59;96666.53;5073383;28;20083;-79
2022/12/07 01:06:23;;;;;;;10.80;8.57;;;;;;;4.84;76.51;96657.31;5073085;28;20056;-78
2022/12/07 01:08:52;;;;;;;9.55;7.80;;;;;;;4.83;76.49;96656.50;5072205;28;20048;-78
2022/12/07 01:11:22;;;;;;;10.00;8.18;;;;;;;4.85;75.43;96653.75;5071533;28;20048;-78
2022/12/07 01:13:50;;;;;;;10.55;8.75;;;;;;;4.84;76.00;96658.13;5073092;28;20056;-78
2022/12/07 01:16:19;;;;;;;13.13;9.05;;;;;;;4.86;76.08;96660.56;5073216;28;20517;-78
2022/12/07 01:18:49;;;;;;;10.02;8.85;;;;;;;4.87;75.37;96660.41;5072930;28;20044;-78
2022/12/07 01:21:20;;;;;;;10.57;8.93;;;;;;;4.88;76.23;96659.47;5073245;28;20048;-78
2022/12/07 01:23:48;;;;;;;9.45;7.30;;;;;;;4.91;75.45;96655.75;5071807;28;20052;-78
2022/12/07 01:26:20;;;;;;;9.75;8.05;;;;;;;4.93;75.28;96671.94;5071260;28;20063;-78
2022/12/07 01:28:48;;;;;;;9.63;8.63;;;;;;;4.93;75.09;96667.59;5072940;28;20452;-78
2022/12/07 01:31:18;;;;;;;10.02;8.80;;;;;;;4.94;74.88;96663.22;5072895;28;20118;-79
2022/12/07 01:33:48;;;;;;;9.35;7.72;;;;;;;4.94;74.28;96665.81;5072818;28;20055;-80
2022/12/07 01:36:17;;;;;;;9.07;7.72;;;;;;;4.93;74.29;96665.00;5073022;28;20048;-78
2022/12/07 01:38:46;;;;;;;10.13;8.73;;;;;;;4.93;75.07;96669.34;5081259;28;20048;-78
2022/12/07 01:41:14;;;;;;;10.13;8.32;;;;;;;4.91;74.98;96664.31;5086442;28;20045;-78
2022/12/07 01:44:20;;;;;;;10.05;8.52;;;;;;;4.89;74.79;96671.41;5076296;28;20052;-78
2022/12/07 01:46:50;;;;;;;9.70;8.70;;;;;;;4.87;75.13;96669.94;5055766;28;20064;-78
2022/12/07 01:49:25;;;;;;;10.18;8.20;;;;;;;4.82;75.23;96667.78;5070795;28;20045;-78
2022/12/07 01:51:58;;;;;;;10.25;8.05;;;;;;;4.80;75.10;96667.09;5070562;28;20478;-78
2022/12/07 01:54:26;;;;;;;12.00;9.15;;;;;;;4.78;74.36;96675.97;5056824;28;20441;-78
2022/12/07 01:56:57;;;;;;;8.40;7.43;;;;;;;4.76;74.23;96668.34;5049511;28;20056;-78
2022/12/07 01:59:26;;;;;;;9.95;8.52;;;;;;;4.79;74.98;96670.66;5050810;28;20049;-78
2022/12/07 02:01:56;;;;;;;9.68;7.88;;;;;;;4.79;74.53;96673.25;5051759;28;20068;-78
2022/12/07 02:04:24;;;;;;;9.52;7.82;;;;;;;4.83;74.74;96666.84;5053155;28;20056;-79
2022/12/07 02:06:54;;;;;;;10.80;9.02;;;;;;;4.83;74.69;96672.00;5052291;28;20049;-78
2022/12/07 02:09:22;;;;;;;10.07;8.00;;;;;;;4.81;75.20;96668.75;5052453;28;20049;-78
2022/12/07 02:11:50;;;;;;;8.88;7.68;;;;;;;4.81;75.18;96666.16;5052759;28;20049;-78
2022/12/07 02:14:18;;;;;;;8.38;7.43;;;;;;;4.78;75.32;96669.03;5051066;28;20049;-78
2022/12/07 02:17:00;;;;;;;10.45;8.70;;;;;;;4.80;74.69;96668.88;5050423;28;20558;-78
2022/12/07 02:20:07;;;;;;;12.27;8.95;;;;;;;4.82;75.18;96672.13;5050339;28;20048;-78
2022/12/07 02:23:01;;;;;;;10.55;8.38;;;;;;;4.82;74.18;96675.53;4988920;28;20073;-78
2022/12/07 02:25:39;;;;;;;;;;;;;;;4.84;74.16;96668.44;4989186;28;20058;-78
2022/12/07 02:28:10;;;;;;;8.27;7.30;;;;;;;4.80;74.50;96672.28;5034674;28;19931;-78
2022/12/07 02:30:45;;;;;;;12.73;8.45;;;;;;;4.78;74.72;96665.63;5052704;28;20056;-79
2022/12/07 02:33:17;;;;;;;9.50;8.25;;;;;;;4.78;74.51;96668.22;5052563;28;20063;-78
2022/12/07 02:35:51;;;;;;;11.57;8.15;;;;;;;4.77;74.57;96661.41;5052705;28;20434;-78
2022/12/07 02:38:25;;;;;;;12.48;8.80;;;;;;;4.74;75.24;96659.94;5052178;28;20052;-78
2022/12/07 02:40:56;;;;;;;10.52;8.18;;;;;;;4.72;75.13;96660.09;5052677;28;20049;-78
2022/12/07 02:43:26;;;;;;;11.88;8.43;;;;;;;4.71;75.73;96660.22;5052453;28;20060;-78
2022/12/07 02:45:59;;;;;;;12.73;8.18;;;;;;;4.71;75.21;96660.22;5052250;28;20056;-78
2022/12/07 02:48:27;;;;;;;;;;;;;;;4.75;75.48;96664.16;5052756;28;20056;-78
2022/12/07 02:50:56;;;;;;;11.23;8.05;;;;;;;4.74;75.84;96663.34;5051802;28;20417;-79
2022/12/07 02:53:30;;;;;;;11.07;8.57;;;;;;;4.73;75.49;96660.91;5051770;28;20049;-78
2022/12/07 02:55:58;;;;;;;12.40;9.95;;;;;;;4.74;75.83;96658.19;5051893;28;20118;-78
2022/12/07 02:58:35;;;;;;;12.68;8.65;;;;;;;4.75;76.52;96653.81;5051770;28;20045;-79
2022/12/07 03:01:15;;;;;;;11.13;8.20;;;;;;;4.70;75.10;96656.00;5056035;28;20560;-78
2022/12/07 03:03:50;;;;;;;11.25;8.98;;;;;;;4.69;75.52;96654.38;5056630;28;20064;-78
2022/12/07 03:06:23;;;;;;;10.93;8.93;;;;;;;4.68;74.45;96652.75;5056135;28;20053;-79
2022/12/07 03:08:57;;;;;;;13.38;9.57;;;;;;;4.68;76.02;96652.75;5055329;28;20499;-78
2022/12/07 03:11:30;;;;;;;11.63;9.65;;;;;;;4.66;75.22;96650.31;5055856;28;20131;-78
2022/12/07 03:14:06;;;;;;;12.73;10.43;;;;;;;4.67;75.92;96645.97;5055569;28;20056;-79
2022/12/07 03:16:42;;;;;;;10.80;8.82;;;;;;;4.69;75.98;96644.84;5055667;28;20064;-78
2022/12/07 03:19:14;;;;;;;13.48;10.23;;;;;;;4.70;74.72;96646.50;5054990;28;20091;-79
2022/12/07 03:21:45;;;;;;;12.02;8.73;;;;;;;4.71;75.66;96647.31;5055341;28;20060;-78
2022/12/07 03:24:16;;;;;;;13.02;9.52;;;;;;;4.70;75.33;96650.84;5055268;28;20426;-78
2022/12/07 03:26:48;;;;;;;11.93;9.13;;;;;;;4.71;75.56;96642.13;5055530;28;20122;-78
2022/12/07 03:29:19;;;;;;;11.15;8.68;;;;;;;4.72;75.67;96648.91;5055378;28;20412;-78
2022/12/07 03:31:54;;;;;;;11.75;9.05;;;;;;;4.68;74.61;96638.06;5055411;28;20049;-78
2022/12/07 03:34:28;;;;;;;14.05;9.15;;;;;;;4.67;75.66;96646.75;5055088;28;20056;-78
2022/12/07 03:37:01;;;;;;;12.98;9.65;;;;;;;4.67;76.01;96636.44;5055416;28;20053;-78
2022/12/07 03:39:34;;;;;;;10.77;8.18;;;;;;;4.62;75.57;96643.81;5055045;28;20091;-78
2022/12/07 03:42:04;;;;;;;13.55;10.15;;;;;;;4.60;76.04;96637.97;5055230;28;20053;-78
2022/12/07 03:44:33;;;;;;;12.10;9.52;;;;;;;4.62;76.56;96640.41;5055382;28;20048;-78
2022/12/07 03:47:05;;;;;;;13.35;9.63;;;;;;;4.60;75.84;96644.91;5054712;28;20048;-79
2022/12/07 03:49:41;;;;;;;13.00;10.52;;;;;;;4.60;75.16;96650.09;5055095;28;20400;-78
2022/12/07 03:52:16;;;;;;;13.10;10.20;;;;;;;4.61;76.31;96641.34;5055437;28;20140;-78
2022/12/07 03:54:50;;;;;;;12.38;9.50;;;;;;;4.61;76.21;96641.34;5055130;28;20057;-78
2022/12/07 03:57:19;;;;;;;12.80;9.98;;;;;;;4.61;76.22;96634.41;5055076;28;20076;-78
2022/12/07 03:59:47;;;;;;;14.50;10.50;;;;;;;4.64;76.38;96635.94;5054362;28;20064;-78
2022/12/07 04:02:16;;;;;;;12.38;9.70;;;;;;;4.66;76.17;96639.19;5054874;28;20048;-78
2022/12/07 04:04:44;;;;;;;16.58;10.65;;;;;;;4.66;75.83;96634.81;5054796;28;20075;-79
2022/12/07 04:07:12;;;;;;;14.07;10.65;;;;;;;4.65;75.02;96634.94;5054660;28;20060;-78
2022/12/07 04:09:40;;;;;;;15.23;11.05;;;;;;;4.61;74.62;96636.19;5055501;28;20510;-79
2022/12/07 04:12:08;;;;;;;12.57;10.55;;;;;;;4.59;75.30;96632.94;5054267;28;20053;-78
2022/12/07 04:14:36;;;;;;;13.50;9.77;;;;;;;4.57;75.79;96633.09;5055825;28;20059;-79
2022/12/07 04:17:03;;;;;;;12.50;9.90;;;;;;;4.57;76.09;96627.94;5055700;28;20053;-78
2022/12/07 04:19:34;;;;;;;14.70;10.65;;;;;;;4.57;75.86;96622.78;5055548;28;20047;-78
2022/12/07 04:22:03;;;;;;;13.38;10.18;;;;;;;4.59;75.62;96623.44;5060962;28;20049;-78
2022/12/07 04:24:31;;;;;;;17.25;11.95;;;;;;;4.62;76.31;96623.13;5069394;28;20060;-77
2022/12/07 04:26:58;;;;;;;13.77;9.95;;;;;;;4.64;76.37;96615.25;5061258;28;20053;-79
2022/12/07 04:29:26;;;;;;;15.85;11.95;;;;;;;4.62;76.36;96623.13;5055492;28;20067;-78
2022/12/07 04:31:54;;;;;;;13.05;10.48;;;;;;;4.61;76.46;96625.84;5054719;28;20391;-78
2022/12/07 04:34:22;;;;;;;14.10;10.00;;;;;;;4.60;76.17;96625.06;5054062;28;20044;-78
2022/12/07 04:36:51;;;;;;;14.43;11.00;;;;;;;4.59;75.43;96618.28;5053773;28;20072;-78
2022/12/07 04:39:21;;;;;;;15.73;11.30;;;;;;;4.59;74.88;96610.53;5053596;28;20049;-78
2022/12/07 04:41:49;;;;;;;16.95;11.60;;;;;;;4.59;75.19;96607.09;5053708;28;20514;-78
2022/12/07 04:44:17;;;;;;;15.00;10.18;;;;;;;4.56;74.66;96603.03;5053894;28;20056;-79
2022/12/07 04:46:45;;;;;;;14.60;11.00;;;;;;;4.56;74.41;96589.31;5054068;28;20045;-78
2022/12/07 04:49:14;;;;;;;14.35;11.25;;;;;;;4.53;74.23;96598.19;5053496;28;20049;-78
2022/12/07 04:51:44;;;;;;;15.27;10.80;;;;;;;4.49;73.94;96600.22;5053811;28;20045;-78
2022/12/07 04:54:14;;;;;;;15.25;10.75;;;;;;;4.46;74.68;96603.09;5054102;28;20045;-78
2022/12/07 04:56:42;;;;;;;16.20;11.23;;;;;;;4.46;74.94;96597.09;5054033;28;20063;-78
2022/12/07 04:59:11;;;;;;;14.60;10.88;;;;;;;4.41;73.71;96594.94;5053308;28;20052;-78
2022/12/07 05:01:38;;;;;;;15.75;10.52;;;;;;;4.39;74.32;96589.13;5053931;28;20510;-78
2022/12/07 05:04:06;;;;;;;15.70;11.15;;;;;;;4.39;74.29;96591.69;5053523;28;20396;-78
2022/12/07 05:06:34;;;;;;;14.90;10.85;;;;;;;4.37;73.72;96588.44;5054050;28;20419;-79
2022/12/07 05:09:02;;;;;;;16.20;10.90;;;;;;;4.36;73.86;96594.56;5053523;28;20056;-78
2022/12/07 05:11:40;;;;;;;15.07;10.88;;;;;;;4.34;73.85;96599.06;5053688;28;20048;-79
2022/12/07 05:14:10;;;;;;;13.13;9.27;;;;;;;4.32;73.56;96593.22;5053662;28;20084;-77
2022/12/07 05:16:39;;;;;;;13.98;9.27;;;;;;;4.29;72.15;96590.94;5053143;28;20502;-78
2022/12/07 05:19:07;;;;;;;11.80;9.40;;;;;;;4.28;73.26;96594.47;5052919;28;20128;-78
2022/12/07 05:21:35;;;;;;;10.80;8.57;;;;;;;4.28;73.78;96589.31;5053198;28;20053;-78
2022/12/07 05:24:04;;;;;;;13.98;10.23;;;;;;;4.30;73.47;96587.41;5052994;28;20051;-78
2022/12/07 05:26:33;;;;;;;12.75;9.52;;;;;;;4.28;72.89;96594.47;5053417;28;20480;-78
2022/12/07 05:29:00;;;;;;;13.07;9.85;;;;;;;4.30;74.00;96590.78;5052996;28;20061;-78
2022/12/07 05:31:28;;;;;;;11.27;8.93;;;;;;;4.31;74.39;96594.19;5052971;28;20052;-78
2022/12/07 05:33:56;;;;;;;15.02;9.57;;;;;;;4.32;74.64;96595.81;5053272;28;20057;-78
2022/12/07 05:36:24;;;;;;;15.15;10.23;;;;;;;4.33;74.75;96600.03;5053263;28;20646;-78
2022/12/07 05:38:51;;;;;;;12.40;9.73;;;;;;;4.35;74.77;96611.00;5052835;28;20049;-78
2022/12/07 05:44:06;;;;;;;10.95;8.25;;;;;;;4.36;73.69;96601.53;5053321;28;20056;-78
2022/12/07 05:46:34;;;;;;;13.43;9.45;;;;;;;4.34;74.69;96596.50;5053288;28;20071;-78
2022/12/07 05:49:02;;;;;;;12.77;9.35;;;;;;;4.35;74.43;96600.69;5052848;28;20123;-78
2022/12/07 05:51:29;;;;;;;14.30;9.48;;;;;;;4.38;74.73;96605.56;5053219;28;20049;-78
2022/12/07 05:53:57;;;;;;;13.60;10.23;;;;;;;4.40;75.32;96598.50;5052878;28;20422;-78
2022/12/07 05:56:26;;;;;;;13.68;8.93;;;;;;;4.41;74.99;96600.13;5052645;28;20404;-78
2022/12/07 06:01:41;;;;;;;13.13;9.32;;;;;;;4.42;73.89;96591.44;5053154;28;20052;-78
2022/12/07 06:04:09;;;;;;;13.52;9.85;;;;;;;4.42;74.73;96590.63;5059619;28;20534;-78
2022/12/07 06:06:36;;;;;;;16.88;10.75;;;;;;;4.43;74.86;96594.81;5072338;28;20074;-78
2022/12/07 06:09:04;;;;;;;15.90;11.48;;;;;;;4.47;75.84;96604.72;5072580;28;20055;-78
2022/12/07 06:14:16;;;;;;;13.75;9.90;;;;;;;4.40;73.42;96616.59;5041845;28;20063;-83
2022/12/07 06:16:45;;;;;;;16.88;10.35;;;;;;;4.34;71.99;96611.97;5072871;28;20059;-78
2022/12/07 06:19:13;;;;;;;16.02;11.18;;;;;;;4.27;72.10;96623.84;5066047;28;20053;-78
2022/12/07 06:21:40;;;;;;;15.45;11.57;;;;;;;4.24;72.84;96619.78;5066631;28;20048;-78
2022/12/07 06:24:09;;;;;;;14.73;10.40;;;;;;;4.20;72.07;96618.44;5096811;22;20538;-80
2022/12/07 06:26:42;;;;;;;14.50;9.88;;;;;;;4.18;72.27;96616.94;5092083;28;20060;-80
2022/12/07 06:29:11;;;;;;;17.23;11.45;;;;;;;4.18;72.48;96622.91;5079056;28;20558;-79
2022/12/07 06:31:39;;;;;;;15.32;11.40;;;;;;;4.16;73.04;96627.41;5065612;28;20044;-79
2022/12/07 06:34:11;;;;;;;16.50;10.82;;;;;;;4.17;74.10;96626.44;5073119;28;20131;-78
2022/12/07 06:36:39;;;;;;;16.13;11.95;;;;;;;4.23;74.60;96627.66;5071767;28;20052;-78
2022/12/07 06:39:08;;;;;;;20.05;12.23;;;;;;;4.28;74.35;96640.94;5059926;28;20052;-78
2022/12/07 06:41:37;;;;;;;16.88;11.57;;;;;;;4.31;73.62;96635.53;5075978;28;20045;-78
2022/12/07 06:44:05;;;;;;;16.95;12.32;;;;;;;4.33;74.35;96633.63;5094735;28;20052;-77
2022/12/07 06:46:35;;;;;;;17.55;11.60;;;;;;;4.30;73.61;96633.88;5097933;28;20078;-81
2022/12/07 06:49:03;;;;;;;17.50;11.50;;;;;;;4.27;74.01;96641.91;5090272;28;20493;-80
2022/12/07 06:51:32;;;;;;;16.95;11.25;;;;;;;4.25;74.54;96642.06;5075942;28;20051;-77
2022/12/07 06:53:59;;;;;;;18.05;11.32;;;;;;;4.25;74.10;96630.91;5075310;28;20178;-80
2022/12/07 06:56:44;;;;;;;17.58;11.52;;;;;;;4.23;74.31;96637.97;5070834;28;20435;-78
2022/12/07 06:59:29;;;;;;;16.70;11.88;;;;;;;4.24;74.14;96639.59;5068776;28;20056;-80
2022/12/07 07:02:19;;;;;;;18.88;12.00;;;;;;;4.24;74.50;96647.34;5079320;28;20052;-81
2022/12/07 07:05:10;;;;;;;16.38;11.15;;;;;;;4.20;75.32;96644.25;5075059;28;20056;-81
2022/12/07 07:07:44;;;;;;;15.65;11.10;;;;;;;4.19;75.17;96642.59;5076642;28;20055;-82
2022/12/07 07:10:41;;;;;;;17.77;11.82;;;;;;;4.17;75.33;96643.72;5078551;28;20086;-81
2022/12/07 07:13:17;;;;;;;18.67;11.52;;;;;;;4.17;75.88;96643.72;5068890;28;20056;-81
2022/12/07 07:15:52;;;;;;;17.58;12.23;;;;;;;4.18;75.11;96645.34;5069480;28;20145;-80
2022/12/07 07:18:23;;;;;;;16.77;11.02;;;;;;;4.20;75.42;96644.25;5078663;28;20052;-80
2022/12/07 07:20:54;;;;;;;19.25;12.27;;;;;;;4.23;75.98;96650.91;5073189;28;20395;-80
2022/12/07 07:23:29;;;;;;;18.05;12.23;;;;;;;4.21;75.02;96645.88;5075959;28;20056;-80
2022/12/07 07:26:09;;;;;;;18.98;12.13;;;;;;;4.21;74.86;96635.53;5076461;28;20044;-80
2022/12/07 07:28:57;;;;;;;18.25;11.82;;;;;;;4.23;75.18;96646.53;5066531;28;20060;-80
2022/12/07 07:31:37;;;;;;;17.40;10.55;;;;;;;4.28;75.18;96646.13;5069640;28;20049;-81
2022/12/07 07:34:13;;;;;;;17.73;12.10;;;;;;;4.30;74.91;96654.53;5076422;28;20498;-81
2022/12/07 07:36:46;;;;;;;19.27;12.15;;;;;;;4.30;75.54;96649.38;5065607;28;20049;-81
2022/12/07 07:39:16;;;;;;;18.48;12.73;;;;;;;4.34;75.15;96655.88;5073705;28;20088;-81
2022/12/07 07:41:47;;;;;;;18.85;11.75;;;;;;;4.32;75.15;96665.53;5064853;28;20045;-80
2022/12/07 07:44:29;;;;;;;18.67;11.57;;;;;;;4.31;74.64;96661.34;5075790;28;20045;-81
2022/12/07 07:47:19;;;;;;;15.55;10.95;;;;;;;4.30;74.41;96670.03;5058021;28;20400;-81
2022/12/07 07:49:55;;;;;;;16.73;11.85;;;;;;;4.30;74.79;96663.09;5067719;28;20053;-80
2022/12/07 07:52:42;;;;;;;19.70;11.73;;;;;;;4.32;75.24;96668.13;5078715;28;20048;-82
2022/12/07 07:55:20;;;;;;;17.45;11.85;;;;;;;4.33;74.17;96675.75;5075795;28;20048;-80
2022/12/07 07:57:50;;;;;;;20.25;11.30;;;;;;;4.31;73.93;96666.50;5074981;28;20079;-80
2022/12/07 08:00:53;;;;;;;18.75;11.85;;;;;;;4.32;75.17;96670.69;5070720;28;20139;-81
2022/12/07 08:03:24;;;;;;;17.92;10.95;;;;;;;4.38;74.54;96667.56;5065315;28;20522;-80
2022/12/07 08:06:04;;;;;;;18.13;10.88;;;;;;;4.44;74.93;96663.59;5057657;28;20080;-80
2022/12/07 08:08:36;;;;;;;17.02;11.25;;;;;;;4.45;74.92;96662.66;5075702;28;20072;-80
2022/12/07 08:11:13;;;;;;;17.55;11.73;;;;;;;4.43;74.05;96665.34;5079130;28;20521;-80
2022/12/07 08:14:21;;;;;;;16.00;10.45;;;;;;;4.40;74.56;96668.25;5075065;28;20628;-80
2022/12/07 08:17:05;;;;;;;15.85;11.25;;;;;;;4.40;74.40;96676.00;5071603;28;20049;-81
2022/12/07 08:19:42;;;;;;;17.42;11.45;;;;;;;4.42;74.73;96668.91;5070089;28;20128;-80
2022/12/07 08:22:16;;;;;;;15.35;10.90;;;;;;;4.44;74.09;96667.00;5076500;28;20048;-81
2022/12/07 08:24:47;;;;;;;15.68;11.18;;;;;;;4.45;74.38;96668.63;5077555;28;20137;-80
2022/12/07 08:27:29;;;;;;;15.68;10.85;;;;;;;4.41;73.00;96667.28;5065473;28;20044;-80
2022/12/07 08:30:02;;;;;;;16.10;10.88;;;;;;;4.43;74.34;96664.56;5069098;28;20413;-80
2022/12/07 08:32:35;;;;;;;14.75;9.68;;;;;;;4.44;74.64;96663.59;5071075;28;20041;-81
2022/12/07 08:35:04;;;;;;;14.85;11.23;;;;;;;4.46;74.82;96675.44;5062177;28;20664;-80
2022/12/07 08:37:38;;;;;;;16.65;10.80;;;;;;;4.49;74.84;96675.13;5078828;28;20064;-81
2022/12/07 08:40:15;;;;;;;15.02;10.23;;;;;;;4.53;74.40;96673.09;5078228;28;20098;-80
2022/12/07 08:42:56;;;;;;;12.93;8.82;;;;;;;4.52;74.26;96674.84;5076798;28;20134;-80
2022/12/07 08:45:32;;;;;;;14.07;9.25;;;;;;;4.55;74.28;96668.59;5076020;28;20053;-80
2022/12/07 08:48:13;;;;;;;13.35;9.90;;;;;;;4.58;72.76;96667.50;5064452;28;20083;-80
2022/12/07 08:50:49;;;;;;;11.13;8.90;;;;;;;4.60;73.18;96670.75;5074503;28;20056;-79
2022/12/07 08:53:21;;;;;;;13.73;8.63;;;;;;;4.61;73.73;96668.00;5067758;28;20057;-80
2022/12/07 08:55:50;;;;;;;10.00;7.50;;;;;;;4.62;73.83;96668.84;5073710;28;20139;-80
2022/12/07 08:58:22;;;;;;;14.95;9.45;;;;;;;4.63;73.12;96680.78;5079107;28;20040;-81
2022/12/07 09:04:13;;;;;;;10.05;7.07;;;;;;;4.59;71.44;96679.44;5057246;28;20049;-81
2022/12/07 09:07:01;;;;;;;8.35;6.20;;;;;;;4.57;70.91;96677.03;5072256;28;20075;-80
2022/12/07 09:10:01;;;;;;;9.93;6.57;;;;;;;4.54;69.70;96678.09;5064847;28;20052;-80
2022/12/07 09:12:50;;;;;;;8.30;6.05;;;;;;;4.54;70.53;96675.50;5067209;28;20060;-80
2022/12/07 09:15:25;;;;;;;8.75;6.03;;;;;;;4.57;71.21;96673.59;5065771;28;20044;-78
2022/12/07 09:18:08;;;;;;;8.57;6.18;;;;;;;4.61;71.48;96677.53;5063385;28;20105;-80
2022/12/07 09:20:48;;;;;;;10.45;6.50;;;;;;;4.66;71.94;96670.19;5072975;28;20494;-80
2022/12/07 09:23:19;;;;;;;8.73;6.35;;;;;;;4.67;71.98;96666.63;5069169;28;20056;-80
2022/12/07 09:25:55;;;;;;;7.15;5.90;;;;;;;4.66;70.58;96671.00;5069867;28;20044;-79
2022/12/07 09:28:29;;;;;;;7.10;5.53;;;;;;;4.69;70.67;96669.88;5072336;28;20055;-81
2022/12/07 09:31:04;;;;;;;9.38;6.00;;;;;;;4.72;69.86;96672.19;5076648;28;20080;-81
2022/12/07 09:33:56;;;;;;;8.65;5.43;;;;;;;4.73;69.56;96668.66;5077568;28;20135;-81
2022/12/07 09:36:27;;;;;;;8.43;6.53;;;;;;;4.74;69.34;96672.84;5082376;28;20118;-81
2022/12/07 09:38:56;;;;;;;8.60;6.00;;;;;;;4.75;68.95;96674.50;5065940;28;20437;-81
2022/12/07 09:41:31;;;;;;;9.40;5.95;;;;;;;4.76;68.55;96665.75;5082175;28;20048;-80
2022/12/07 09:44:05;;;;;;;6.50;5.13;;;;;;;4.77;68.53;96667.41;5067422;28;20079;-80
2022/12/07 09:46:40;;;;;;;7.90;5.38;;;;;;;4.79;68.11;96664.66;5081013;28;20049;-81
2022/12/07 09:49:15;;;;;;;7.10;5.45;;;;;;;4.82;68.96;96670.38;5073211;28;20072;-81
2022/12/07 09:51:45;;;;;;;7.95;5.97;;;;;;;4.87;69.05;96654.41;5067662;28;20052;-81
2022/12/07 09:54:17;;;;;;;7.60;5.63;;;;;;;4.90;69.62;96662.72;5071110;28;20061;-80
2022/12/07 09:56:46;;;;;;;7.93;5.88;;;;;;;4.95;68.62;96655.31;5071660;28;20062;-81
2022/12/07 09:59:26;;;;;;;7.75;5.85;;;;;;;5.01;66.84;96653.09;5087207;28;20044;-81
2022/12/07 10:02:33;;;;;;;9.18;6.35;;;;;;;5.06;65.92;96650.91;5086780;28;20045;-81
2022/12/07 10:05:07;;;;;;;9.55;5.95;;;;;;;5.10;67.77;96657.44;5088614;28;20052;-81
2022/12/07 10:07:38;;;;;;;;;;;;;;;5.17;67.75;96653.28;5088361;28;20243;-82
2022/12/07 10:10:18;;;;;;;7.40;5.32;;;;;;;5.19;67.26;96641.03;5093094;28;20023;-81
2022/12/07 10:13:01;;;;;;;8.40;5.40;;;;;;;5.21;65.69;96639.13;5092921;28;20059;-81
2022/12/07 10:15:43;;;;;;;;;;;;;;;5.28;66.45;96645.31;5102641;28;20035;-81
2022/12/07 10:18:30;;;;;;;10.35;5.70;;;;;;;5.31;67.38;96644.19;5101986;28;19905;-82
2022/12/07 10:21:24;;;;;;;6.90;5.80;;;;;;;5.32;64.75;96638.88;5068592;28;20053;-81
2022/12/07 10:26:56;;;;;;;8.90;6.28;;;;;;;5.34;65.04;96638.75;5068733;28;20044;-81
2022/12/07 10:29:31;;;;;;;8.55;5.45;;;;;;;5.35;66.51;96630.81;5080151;28;20094;-81
2022/12/07 10:32:35;;;;;;;7.30;6.13;;;;;;;5.36;65.22;96631.66;5072257;28;20041;-81
2022/12/07 10:35:26;;;;;;;8.15;6.45;;;;;;;5.35;64.51;96625.66;5078885;28;20111;-81
2022/12/07 10:37:58;;;;;;;10.02;6.55;;;;;;;5.35;65.57;96625.66;5083770;28;20055;-81
2022/12/07 10:40:36;;;;;;;9.55;6.35;;;;;;;5.35;66.34;96620.47;5083025;28;20075;-81
2022/12/07 10:43:47;;;;;;;;;;;;;;;;;;;;;
2022/12/07 10:46:53;;;;;;;9.32;6.55;;;;;;;5.34;65.72;96624.03;5058066;28;20075;-81
2022/12/07 10:49:50;;;;;;;8.95;7.10;;;;;;;5.40;66.33;96621.81;5071465;28;20068;-80
2022/12/07 10:53:03;;;;;;;9.00;6.57;;;;;;;5.41;64.99;96618.28;5079996;28;20048;-80
2022/12/07 10:55:46;;;;;;;10.27;5.68;;;;;;;5.42;65.61;96609.53;5080696;28;20044;-79
2022/12/07 10:58:34;;;;;;;9.73;6.55;;;;;;;5.41;65.23;96608.72;5079015;28;20566;-81
2022/12/07 11:01:15;;;;;;;8.95;6.22;;;;;;;5.44;66.44;96610.19;5077059;28;20079;-80
2022/12/07 11:03:57;;;;;;;9.25;7.10;;;;;;;5.46;66.75;96608.28;5057845;28;20455;-81
2022/12/07 11:06:35;;;;;;;8.10;6.50;;;;;;;5.50;65.45;96600.06;5070603;28;20059;-81
2022/12/07 11:09:37;;;;;;;9.68;7.13;;;;;;;5.51;67.74;96603.47;5077993;28;20473;-80
2022/12/07 11:12:59;;;;;;;9.15;6.65;;;;;;;5.50;66.04;96597.47;5065551;28;20128;-81
2022/12/07 11:15:35;;;;;;;8.68;6.47;;;;;;;5.50;67.03;96592.31;5058325;28;20060;-81
2022/12/07 11:18:12;;;;;;;8.05;6.40;;;;;;;5.46;66.85;96596.16;5060127;28;20076;-81
2022/12/07 11:21:15;;;;;;;9.10;6.38;;;;;;;5.44;66.99;96595.50;5076596;28;20558;-81
2022/12/07 11:23:54;;;;;;;8.25;6.18;;;;;;;5.43;65.93;96596.47;5066480;28;20041;-81
2022/12/07 11:26:42;;;;;;;10.25;7.07;;;;;;;5.45;66.77;96593.75;5079533;28;20131;-81
2022/12/07 11:29:48;;;;;;;7.68;5.72;;;;;;;5.46;66.61;96587.59;5077735;28;20052;-80
2022/12/07 11:32:39;;;;;;;9.73;6.85;;;;;;;5.40;65.29;96590.75;5078552;28;20044;-81
2022/12/07 11:35:20;;;;;;;11.35;7.00;;;;;;;5.40;66.55;96589.00;5078316;28;20106;-81
2022/12/07 11:37:59;;;;;;;8.15;6.85;;;;;;;5.40;66.05;96588.19;5076803;28;20506;-81
2022/12/07 11:40:46;;;;;;;10.05;7.00;;;;;;;5.36;66.76;96580.72;5075207;28;20668;-80
2022/12/07 11:43:22;;;;;;;10.98;7.03;;;;;;;5.36;67.39;96585.91;5062597;28;20062;-81
2022/12/07 11:46:00;;;;;;;11.18;7.05;;;;;;;5.37;66.76;96577.16;5065541;28;20059;-81
2022/12/07 11:48:34;;;;;;;10.82;7.82;;;;;;;5.34;67.67;96580.06;5069541;28;20076;-80
2022/12/07 11:51:04;;;;;;;11.40;7.93;;;;;;;5.31;67.45;96575.19;5058815;28;20384;-81
2022/12/07 11:53:46;;;;;;;10.23;7.32;;;;;;;5.29;67.18;96569.38;5083001;28;20063;-81
2022/12/07 11:56:16;;;;;;;9.73;6.47;;;;;;;5.30;66.55;96575.34;5076292;28;20134;-79
2022/12/07 11:58:49;;;;;;;9.82;6.47;;;;;;;5.29;66.49;96571.94;5074584;28;20036;-78
2022/12/07 12:01:33;;;;;;;9.27;5.80;;;;;;;5.29;67.08;96568.53;5071612;28;20056;-80
2022/12/07 12:04:06;;;;;;;10.02;6.45;;;;;;;5.32;67.44;96574.22;5054289;28;20041;-81
2022/12/07 12:06:34;;;;;;;9.07;6.40;;;;;;;5.34;67.13;96561.97;5058867;28;20055;-80
2022/12/07 12:09:07;;;;;;;7.88;5.95;;;;;;;5.36;68.35;96554.88;5072078;28;20052;-80
2022/12/07 12:12:11;;;;;;;10.73;6.07;;;;;;;5.39;69.10;96548.56;5072448;28;20110;-79
2022/12/07 12:15:13;;;;;;;9.52;6.57;;;;;;;5.43;68.29;96539.56;5075045;28;20110;-81
2022/12/07 12:18:11;;;;;;;8.63;6.00;;;;;;;5.47;67.80;96545.25;5072305;28;20052;-80
2022/12/07 12:20:43;;;;;;;12.05;6.70;;;;;;;5.49;67.09;96544.13;5065498;28;20049;-80
2022/12/07 12:23:15;;;;;;;9.95;6.50;;;;;;;5.51;67.89;96541.38;5057454;28;20276;-79
2022/12/07 12:25:46;;;;;;;11.70;7.07;;;;;;;5.54;68.28;96547.06;5065129;28;20053;-80
2022/12/07 12:28:25;;;;;;;13.35;8.82;;;;;;;5.53;67.90;96536.84;5058406;28;20048;-80